01:07
Airports
History
Links
Donate
Help keep this website running!
PayPal
Bitcoin
This page is community maintained. The information is intended for PC simulator navigation or reference.
Always use approved charts for navigation.
EDUT
TEMPLIN GROSS DOLLN
TEMPLIN GROSS DOLLN (EDUT)
Templin, Brandenburg, Germany (17268)
(U)
Lat/Lng:53° 1' 43.79" N / 13° 30' 58.5" E
53.02883 / 13.51625
Elevation:202'ft / 62mMSL
ID / ICAO:EDUT
Runways:1
Longest:09-27
Concrete 998m / 3,274ft
Nearby Weather00:50 GMT 2017-11-18
Nearby weather at EDDT, Berlin Tegel located 33.8 nautical miles from EDUT
Altimeter: 30.15
Visibility: 6.2 statute miles
Wind: 7 knots (from 250°)
Temp: 2°c / 36°f
Humidity: %

METAR: EDDT 180050Z 25007KT CAVOK 02/00 Q1021

(Powered by phpweather)
Airport Radio Frequencies
Tower: 132.65, 123.47
Nearby VORs <50NM
Nearby NDBs
Runway 09 / 27
Dimensions:997.8 x 29.9m 3274' x 98'ft
Surface:Concrete
Runway 09 [A]Runway 27 [B]
Heading:090°TH 270°TH
Lat:
Lng:
53° 1' 43.8"N
13° 30' 31.67"E
53° 1' 43.77"N
13° 31' 25.33"E
User Notes and Comments
53° 1' 43.79" N / 13° 30' 58.5" E
Distance To
Airport ID:
Nearby Airports
4 TORGAU-BEILRODE 13.1 NM
EDOG W 262°
(U) Finow 15.8 NM
EDAV SSE 152°
(U) Dedelow 25.2 NM
EDBD NNE 26°
(C) Werneuchen 29.5 NM
EDBW SSE 158°
(C) Berlin Tegel 33.8 NM
EDDT ( WX ) SSW 196°
(C) Strausberg 35.2 NM
EDAY SSE 151°
(U) Fehrbellin 35.2 NM
EDBF WSW 242°
VFR Chart
Flight Planning at SkyVector.com